createdAt,value
2022-08-22T00:01:55.574Z,65.29
2022-08-22T00:02:47.891Z,65.32
2022-08-22T00:02:57.619Z,65.01
2022-08-22T00:03:15.001Z,64.94
2022-08-22T00:04:35.096Z,65.21
2022-08-22T00:07:13.827Z,65.03
2022-08-22T00:09:54.100Z,65.18
2022-08-22T00:12:31.639Z,65.12
2022-08-22T00:15:08.120Z,65.32
2022-08-22T00:17:56.975Z,65.21
2022-08-22T00:20:34.356Z,65.28
2022-08-22T00:23:13.185Z,65.47
2022-08-22T00:25:57.121Z,65.42
2022-08-22T00:28:34.943Z,65.46
2022-08-22T00:31:16.833Z,65.56
2022-08-22T00:33:51.387Z,65.51
2022-08-22T00:36:27.033Z,65.45
2022-08-22T00:39:07.176Z,65.71
2022-08-22T00:41:57.531Z,65.59
2022-08-22T00:45:04.066Z,65.65
2022-08-22T00:47:57.890Z,65.93
2022-08-22T00:50:51.073Z,66.00
2022-08-22T00:53:41.588Z,65.70
2022-08-22T00:56:52.339Z,65.73
2022-08-22T01:00:00.561Z,65.69
2022-08-22T01:02:57.718Z,65.55
2022-08-22T01:05:48.150Z,65.51
2022-08-22T01:08:36.852Z,65.71
2022-08-22T01:11:26.820Z,65.51
2022-08-22T01:14:13.788Z,65.55
2022-08-22T01:17:19.365Z,65.56
2022-08-22T01:20:23.904Z,65.68
2022-08-22T01:23:46.869Z,65.78
2022-08-22T01:26:47.746Z,66.09
2022-08-22T01:29:56.017Z,65.99
2022-08-22T01:32:58.347Z,65.63
2022-08-22T01:35:52.156Z,66.06
2022-08-22T01:38:39.077Z,65.96
2022-08-22T01:41:44.984Z,66.01
2022-08-22T01:44:32.344Z,66.17
2022-08-22T01:47:07.208Z,66.09
2022-08-22T01:49:50.986Z,66.15
2022-08-22T01:52:38.001Z,66.35
2022-08-22T01:55:14.305Z,66.18
2022-08-22T01:57:57.701Z,66.33
2022-08-22T02:00:51.672Z,66.43
2022-08-22T02:03:29.401Z,66.50
2022-08-22T02:06:05.092Z,66.63
2022-08-22T02:08:45.877Z,66.69
2022-08-22T02:11:38.625Z,66.42
2022-08-22T02:14:21.173Z,66.54
2022-08-22T02:16:55.044Z,66.69
2022-08-22T02:19:34.398Z,66.68
2022-08-22T02:22:05.959Z,66.44
2022-08-22T02:24:50.782Z,66.57
2022-08-22T02:27:32.153Z,66.68
2022-08-22T02:30:09.881Z,66.65
2022-08-22T02:33:01.903Z,66.86
2022-08-22T02:35:36.715Z,67.20
2022-08-22T02:38:21.151Z,67.26
2022-08-22T02:41:05.125Z,67.09
2022-08-22T02:43:43.688Z,67.08
2022-08-22T02:46:24.304Z,67.06
2022-08-22T02:49:03.657Z,67.10
2022-08-22T02:51:41.512Z,67.25
2022-08-22T02:54:17.369Z,67.28
2022-08-22T02:56:56.816Z,67.44
2022-08-22T02:59:36.619Z,67.18
2022-08-22T03:02:27.836Z,67.13
2022-08-22T03:05:01.010Z,67.04
2022-08-22T03:07:44.861Z,66.95
2022-08-22T03:11:21.245Z,67.03
2022-08-22T03:14:04.574Z,67.11
2022-08-22T03:16:39.150Z,67.20
2022-08-22T03:19:18.611Z,67.16
2022-08-22T03:21:57.415Z,67.24
2022-08-22T03:24:36.078Z,66.95
2022-08-22T03:27:12.104Z,66.86
2022-08-22T03:29:54.475Z,67.13
2022-08-22T03:32:25.291Z,67.13
2022-08-22T03:35:00.135Z,67.40
2022-08-22T03:37:40.530Z,67.27
2022-08-22T03:40:29.716Z,67.36
2022-08-22T03:43:22.580Z,67.34
2022-08-22T03:46:31.169Z,67.22
2022-08-22T03:49:28.128Z,67.40
2022-08-22T03:52:25.636Z,67.17
2022-08-22T03:55:26.637Z,67.06
2022-08-22T03:58:35.461Z,67.27
2022-08-22T04:01:40.432Z,67.20
2022-08-22T04:04:52.140Z,67.36
2022-08-22T04:08:06.016Z,67.10
2022-08-22T04:10:52.918Z,67.28
2022-08-22T04:13:57.915Z,67.39
2022-08-22T04:17:01.283Z,67.36
2022-08-22T04:19:55.466Z,67.29
2022-08-22T04:23:10.552Z,67.39
2022-08-22T04:25:43.228Z,67.93
2022-08-22T04:28:20.855Z,67.72
2022-08-22T04:30:57.465Z,67.96
2022-08-22T04:33:31.536Z,68.06
2022-08-22T04:36:06.439Z,68.10
2022-08-22T04:38:43.367Z,68.31
2022-08-22T04:41:16.616Z,68.26
2022-08-22T04:43:51.779Z,68.41
2022-08-22T04:46:36.726Z,68.70
2022-08-22T04:49:09.031Z,68.86
2022-08-22T04:51:43.716Z,68.80
2022-08-22T04:54:31.152Z,68.70
2022-08-22T04:57:15.572Z,69.05
2022-08-22T04:59:45.910Z,69.22
2022-08-22T05:02:23.129Z,69.03
2022-08-22T05:04:59.566Z,69.23
2022-08-22T05:07:36.103Z,69.18
2022-08-22T05:10:12.056Z,68.97
2022-08-22T05:12:47.200Z,69.55
2022-08-22T05:15:23.320Z,69.75
2022-08-22T05:17:55.211Z,69.86
2022-08-22T05:20:27.214Z,69.82
2022-08-22T05:23:02.818Z,69.74
2022-08-22T05:25:38.989Z,69.63
2022-08-22T05:28:13.133Z,69.88
2022-08-22T05:30:44.858Z,70.30
2022-08-22T05:33:22.200Z,70.38
2022-08-22T05:35:58.029Z,69.83
2022-08-22T05:38:35.360Z,70.31
2022-08-22T05:41:10.158Z,70.38
2022-08-22T05:43:43.179Z,70.27
2022-08-22T05:46:22.053Z,70.16
2022-08-22T05:48:59.919Z,70.53
2022-08-22T05:51:36.115Z,70.09
2022-08-22T05:54:13.771Z,70.39
2022-08-22T05:56:48.098Z,70.38
2022-08-22T05:59:26.182Z,70.26
2022-08-22T06:02:03.809Z,70.02
2022-08-22T06:04:38.833Z,70.36
2022-08-22T06:07:15.986Z,70.26
2022-08-22T06:10:21.684Z,70.43
2022-08-22T06:13:01.347Z,70.25
2022-08-22T06:15:37.763Z,70.55
2022-08-22T06:18:13.526Z,70.79
2022-08-22T06:20:48.481Z,70.70
2022-08-22T06:23:21.876Z,70.46
2022-08-22T06:25:53.027Z,70.77
2022-08-22T06:28:28.098Z,70.55
2022-08-22T06:30:58.716Z,70.64
2022-08-22T06:33:30.554Z,70.74
2022-08-22T06:36:21.362Z,70.88
2022-08-22T06:39:09.045Z,71.03
2022-08-22T06:41:42.622Z,71.35
2022-08-22T06:44:21.120Z,71.16
2022-08-22T06:46:53.514Z,71.53
2022-08-22T06:49:26.783Z,71.45
2022-08-22T06:52:01.264Z,71.36
2022-08-22T06:54:36.264Z,71.61
2022-08-22T06:57:07.742Z,71.85
2022-08-22T06:59:40.459Z,71.51
2022-08-22T07:02:22.685Z,71.30
2022-08-22T07:04:53.056Z,71.50
2022-08-22T07:07:25.527Z,71.35
2022-08-22T07:09:57.592Z,71.08
2022-08-22T07:12:31.766Z,71.15
2022-08-22T07:15:12.203Z,70.75
2022-08-22T07:17:50.982Z,70.61
2022-08-22T07:20:28.077Z,70.29
2022-08-22T07:23:02.323Z,70.23
2022-08-22T07:25:32.852Z,70.44
2022-08-22T07:28:16.359Z,70.27
2022-08-22T07:31:02.525Z,69.90
2022-08-22T07:33:44.066Z,69.92
2022-08-22T07:36:31.806Z,69.96
2022-08-22T07:39:25.975Z,69.94
2022-08-22T07:42:09.772Z,69.98
2022-08-22T07:44:53.280Z,69.93
2022-08-22T07:47:28.729Z,69.50
2022-08-22T07:50:02.885Z,69.70
2022-08-22T07:52:38.356Z,69.70
2022-08-22T07:55:16.671Z,69.47
2022-08-22T07:57:53.067Z,69.48
2022-08-22T08:00:24.452Z,69.42
2022-08-22T08:02:58.379Z,69.53
2022-08-22T08:05:32.617Z,69.35
2022-08-22T08:08:05.413Z,69.45
2022-08-22T08:10:39.516Z,69.44
2022-08-22T08:13:13.356Z,69.20
2022-08-22T08:15:45.844Z,69.03
2022-08-22T08:18:22.045Z,69.01
2022-08-22T08:20:58.067Z,68.91
2022-08-22T08:23:31.527Z,68.77
2022-08-22T08:26:06.523Z,68.86
2022-08-22T08:28:41.291Z,68.90
2022-08-22T08:31:21.585Z,68.85
2022-08-22T08:33:58.971Z,68.67
2022-08-22T08:36:37.907Z,68.77
2022-08-22T08:39:18.014Z,68.81
2022-08-22T08:42:13.089Z,68.79
2022-08-22T08:45:08.582Z,68.69
2022-08-22T08:47:55.510Z,68.70
2022-08-22T08:50:43.909Z,68.50
2022-08-22T08:53:45.167Z,68.26
2022-08-22T08:56:25.393Z,68.24
2022-08-22T08:59:10.255Z,68.29
2022-08-22T09:02:06.696Z,68.18
2022-08-22T09:05:03.736Z,68.09
2022-08-22T09:08:03.030Z,68.27
2022-08-22T09:14:57.007Z,68.13
2022-08-22T09:18:00.700Z,67.93
2022-08-22T09:21:16.697Z,67.97
2022-08-22T09:24:39.366Z,67.98
2022-08-22T09:27:17.036Z,68.10
2022-08-22T09:29:54.496Z,68.01
2022-08-22T09:32:42.492Z,67.83
2022-08-22T09:35:23.736Z,67.85
2022-08-22T09:38:23.362Z,67.56
2022-08-22T09:41:02.217Z,67.81
2022-08-22T09:43:45.085Z,67.67
2022-08-22T09:46:31.589Z,67.74
2022-08-22T09:49:13.249Z,67.83
2022-08-22T09:51:54.736Z,67.70
2022-08-22T09:54:36.072Z,67.71
2022-08-22T09:57:24.427Z,67.75
2022-08-22T10:00:02.654Z,67.74
2022-08-22T10:02:43.546Z,67.81
2022-08-22T10:05:35.167Z,67.73
2022-08-22T10:08:36.731Z,67.67
2022-08-22T10:11:28.727Z,67.60
2022-08-22T10:14:03.622Z,67.51
2022-08-22T10:17:00.679Z,67.33
2022-08-22T10:19:34.194Z,67.30
2022-08-22T10:22:29.892Z,67.18
2022-08-22T10:25:09.785Z,67.06
2022-08-22T10:28:05.513Z,66.89
2022-08-22T10:30:41.223Z,67.10
2022-08-22T10:33:17.892Z,66.82
2022-08-22T10:36:00.926Z,66.81
2022-08-22T10:38:46.189Z,66.71
2022-08-22T10:41:28.041Z,66.89
2022-08-22T10:44:06.294Z,66.61
2022-08-22T10:46:42.281Z,66.51
2022-08-22T10:49:20.741Z,66.67
2022-08-22T10:51:58.311Z,66.28
2022-08-22T10:54:47.254Z,66.44
2022-08-22T10:57:37.524Z,66.11
2022-08-22T11:00:15.094Z,66.32
2022-08-22T11:02:58.421Z,66.00
2022-08-22T11:05:41.242Z,66.33
2022-08-22T11:08:41.505Z,66.13
2022-08-22T11:11:43.365Z,66.10
2022-08-22T11:14:42.950Z,65.74
2022-08-22T11:17:32.319Z,65.67
2022-08-22T11:20:21.460Z,65.42
2022-08-22T11:23:08.136Z,65.28
2022-08-22T11:25:58.108Z,65.38
2022-08-22T11:28:39.209Z,65.36
2022-08-22T11:31:22.885Z,65.33
2022-08-22T11:33:58.978Z,65.70
2022-08-22T11:36:38.257Z,65.30
2022-08-22T11:39:22.918Z,65.57
2022-08-22T11:42:04.084Z,65.19
2022-08-22T11:44:50.532Z,65.45
2022-08-22T11:47:26.347Z,65.00
2022-08-22T11:50:03.479Z,64.92
2022-08-22T11:53:09.579Z,64.76
2022-08-22T11:55:44.674Z,65.03
2022-08-22T11:58:29.097Z,64.63
2022-08-22T12:01:04.278Z,64.61
2022-08-22T12:04:06.238Z,64.26
2022-08-22T12:07:11.964Z,64.39
2022-08-22T12:09:51.987Z,63.96
2022-08-22T12:12:31.013Z,63.87
2022-08-22T12:15:09.025Z,63.94
2022-08-22T12:18:01.433Z,64.20
2022-08-22T12:21:02.089Z,63.82
2022-08-22T12:24:00.762Z,63.70
2022-08-22T12:26:47.148Z,63.68
2022-08-22T12:29:40.071Z,63.97
2022-08-22T12:32:49.992Z,63.88
2022-08-22T12:35:34.710Z,63.53
2022-08-22T12:38:28.602Z,63.72
2022-08-22T12:41:27.767Z,63.58
2022-08-22T12:44:07.321Z,63.52
2022-08-22T12:47:04.325Z,63.28
2022-08-22T12:49:57.115Z,63.20
2022-08-22T12:52:44.300Z,63.08
2022-08-22T12:55:48.795Z,63.05
2022-08-22T12:58:33.109Z,63.16
2022-08-22T13:01:06.885Z,63.38
2022-08-22T13:03:45.948Z,63.38
2022-08-22T13:06:53.072Z,63.36
2022-08-22T13:09:28.934Z,63.35
2022-08-22T13:12:05.056Z,63.21
2022-08-22T13:14:36.219Z,63.28
2022-08-22T13:17:25.105Z,63.34
2022-08-22T13:20:04.760Z,63.12
2022-08-22T13:22:39.011Z,62.88
2022-08-22T13:25:25.553Z,63.00
2022-08-22T13:28:03.427Z,62.95
2022-08-22T13:30:37.547Z,62.55
2022-08-22T13:33:10.274Z,62.64
2022-08-22T13:35:52.280Z,62.83
2022-08-22T13:38:26.648Z,62.57
2022-08-22T13:40:58.051Z,62.38
2022-08-22T13:43:31.164Z,62.57
2022-08-22T13:46:11.432Z,62.43
2022-08-22T13:48:49.920Z,62.36
2022-08-22T13:51:27.605Z,62.32
2022-08-22T13:54:10.861Z,62.36
2022-08-22T13:56:50.603Z,62.14
2022-08-22T13:59:47.014Z,62.35
2022-08-22T14:02:35.296Z,62.08
2022-08-22T14:05:09.939Z,62.32
2022-08-22T14:07:52.961Z,62.19
2022-08-22T14:10:27.912Z,61.99
2022-08-22T14:13:32.656Z,62.00
2022-08-22T14:16:11.133Z,61.87
2022-08-22T14:18:50.850Z,62.01
2022-08-22T14:21:40.742Z,61.93
2022-08-22T14:24:26.877Z,62.21
2022-08-22T14:26:59.749Z,61.85
2022-08-22T14:29:40.490Z,61.97
2022-08-22T14:32:35.099Z,61.79
2022-08-22T14:35:21.717Z,62.01
2022-08-22T14:38:21.623Z,61.83
2022-08-22T14:41:06.723Z,61.73
2022-08-22T14:43:51.641Z,61.72
2022-08-22T14:46:26.868Z,61.82
2022-08-22T14:49:25.326Z,61.74
2022-08-22T14:51:58.918Z,61.91
2022-08-22T14:54:32.351Z,61.83
2022-08-22T14:57:10.091Z,61.81
2022-08-22T14:59:50.023Z,61.67
2022-08-22T15:02:28.780Z,61.88
2022-08-22T15:05:01.615Z,61.85
2022-08-22T15:07:34.645Z,61.59
2022-08-22T15:10:11.992Z,61.86
2022-08-22T15:12:51.470Z,61.68
2022-08-22T15:15:49.439Z,61.58
2022-08-22T15:18:36.925Z,61.54
2022-08-22T15:21:10.274Z,61.66
2022-08-22T15:23:47.032Z,61.70
2022-08-22T15:26:23.985Z,61.72
2022-08-22T15:29:05.832Z,61.76
2022-08-22T15:31:35.703Z,61.52
2022-08-22T15:34:14.103Z,61.72
2022-08-22T15:37:11.938Z,61.88
2022-08-22T15:40:12.048Z,61.64
2022-08-22T15:42:45.198Z,61.81
2022-08-22T15:45:31.130Z,61.72
2022-08-22T15:48:06.073Z,61.69
2022-08-22T15:50:41.858Z,61.62
2022-08-22T15:53:19.509Z,61.45
2022-08-22T15:56:22.225Z,61.48
2022-08-22T15:59:14.082Z,61.47
2022-08-22T16:01:54.409Z,61.39
2022-08-22T16:04:39.238Z,61.33
2022-08-22T16:07:25.512Z,61.52
2022-08-22T16:09:58.138Z,61.54
2022-08-22T16:12:36.482Z,61.44
2022-08-22T16:15:28.956Z,61.44
2022-08-22T16:18:01.437Z,61.53
2022-08-22T16:20:55.392Z,61.53
2022-08-22T16:23:25.024Z,61.51
2022-08-22T16:26:16.661Z,61.46
2022-08-22T16:29:06.758Z,61.50
2022-08-22T16:31:39.326Z,61.47
2022-08-22T16:34:26.549Z,61.43
2022-08-22T16:37:44.570Z,61.52
2022-08-22T16:40:24.109Z,61.61
2022-08-22T16:43:12.955Z,61.64
2022-08-22T16:45:46.204Z,61.53
2022-08-22T16:48:27.935Z,61.52
2022-08-22T16:51:12.071Z,61.44
2022-08-22T16:54:04.282Z,61.35
2022-08-22T16:56:47.192Z,61.44
2022-08-22T16:59:40.532Z,61.62
2022-08-22T17:02:39.047Z,61.70
2022-08-22T17:05:29.467Z,61.31
2022-08-22T17:08:17.622Z,61.43
2022-08-22T17:11:00.278Z,61.49
2022-08-22T17:13:52.637Z,61.56
2022-08-22T17:16:52.116Z,61.63
2022-08-22T17:19:38.807Z,61.63
2022-08-22T17:22:20.804Z,61.44
2022-08-22T17:25:03.258Z,61.40
2022-08-22T17:27:40.017Z,61.32
2022-08-22T17:30:13.601Z,61.28
2022-08-22T17:33:00.215Z,61.47
2022-08-22T17:35:46.644Z,61.37
2022-08-22T17:38:31.371Z,61.32
2022-08-22T17:41:13.286Z,61.52
2022-08-22T17:43:56.925Z,61.49
2022-08-22T17:46:43.511Z,61.46
2022-08-22T17:49:29.855Z,61.54
2022-08-22T17:52:08.203Z,61.31
2022-08-22T17:54:42.284Z,61.44
2022-08-22T17:57:24.685Z,61.29
2022-08-22T18:00:00.637Z,61.55
2022-08-22T18:02:35.486Z,61.58
2022-08-22T18:05:12.448Z,61.41
2022-08-22T18:07:57.427Z,61.54
2022-08-22T18:10:39.046Z,61.31
2022-08-22T18:13:16.196Z,61.68
2022-08-22T18:15:51.872Z,61.54
2022-08-22T18:18:31.505Z,61.50
2022-08-22T18:21:06.259Z,61.50
2022-08-22T18:23:40.783Z,61.51
2022-08-22T18:26:27.067Z,61.53
2022-08-22T18:29:01.926Z,61.52
2022-08-22T18:31:41.066Z,61.30
2022-08-22T18:34:21.497Z,61.60
2022-08-22T18:36:57.576Z,61.32
2022-08-22T18:39:31.742Z,61.32
2022-08-22T18:42:09.991Z,61.34
2022-08-22T18:44:41.223Z,61.31
2022-08-22T18:47:16.584Z,61.39
2022-08-22T18:49:54.397Z,61.18
2022-08-22T18:52:36.836Z,61.45
2022-08-22T18:55:33.000Z,61.42
2022-08-22T18:58:28.287Z,61.51
2022-08-22T19:01:44.562Z,61.56
2022-08-22T19:04:49.871Z,61.33
2022-08-22T19:07:42.180Z,61.35
2022-08-22T19:10:34.468Z,61.43
2022-08-22T19:13:31.856Z,61.35
2022-08-22T19:16:31.618Z,61.50
2022-08-22T19:19:04.794Z,61.33
2022-08-22T19:21:52.982Z,61.27
2022-08-22T19:24:57.884Z,61.42
2022-08-22T19:27:35.132Z,61.33
2022-08-22T19:30:09.147Z,61.50
2022-08-22T19:33:02.135Z,61.38
2022-08-22T19:35:40.352Z,61.55
2022-08-22T19:38:12.320Z,61.69
2022-08-22T19:40:54.596Z,61.76
2022-08-22T19:43:35.413Z,61.71
2022-08-22T19:46:08.958Z,61.64
2022-08-22T19:48:49.835Z,61.64
2022-08-22T19:51:30.254Z,61.47
2022-08-22T19:54:16.384Z,61.44
2022-08-22T19:57:10.189Z,61.70
2022-08-22T19:59:53.120Z,61.50
2022-08-22T20:02:35.761Z,61.51
2022-08-22T20:05:30.732Z,61.49
2022-08-22T20:08:22.233Z,61.69
2022-08-22T20:11:07.560Z,61.73
2022-08-22T20:13:41.846Z,61.57
2022-08-22T20:16:17.447Z,61.67
2022-08-22T20:19:17.845Z,61.63
2022-08-22T20:21:59.997Z,61.67
2022-08-22T20:24:40.022Z,61.64
2022-08-22T20:27:15.836Z,61.67
2022-08-22T20:29:51.144Z,61.75
2022-08-22T20:32:23.138Z,61.92
2022-08-22T20:34:57.075Z,61.71
2022-08-22T20:37:56.156Z,61.75
2022-08-22T20:40:55.975Z,61.75
2022-08-22T20:43:31.794Z,61.97
2022-08-22T20:46:13.966Z,61.91
2022-08-22T20:48:46.177Z,61.94
2022-08-22T20:51:22.343Z,61.83
2022-08-22T20:53:55.603Z,61.88
2022-08-22T20:56:46.001Z,61.92
2022-08-22T20:59:36.889Z,61.85
2022-08-22T21:02:14.578Z,62.25
2022-08-22T21:04:50.542Z,62.17
2022-08-22T21:07:27.848Z,62.15
2022-08-22T21:10:22.635Z,62.13
2022-08-22T21:13:10.051Z,62.02
2022-08-22T21:15:41.420Z,62.32
2022-08-22T21:18:13.148Z,62.35
2022-08-22T21:20:42.787Z,62.39
2022-08-22T21:23:15.247Z,62.36
2022-08-22T21:25:58.531Z,62.51
2022-08-22T21:28:31.086Z,62.47
2022-08-22T21:31:01.830Z,62.50
2022-08-22T21:33:31.189Z,62.39
2022-08-22T21:36:01.276Z,62.44
2022-08-22T21:38:30.934Z,62.47
2022-08-22T21:41:05.611Z,62.36
2022-08-22T21:43:38.020Z,62.39
2022-08-22T21:46:08.673Z,62.64
2022-08-22T21:48:43.766Z,62.56
2022-08-22T21:51:41.927Z,62.59
2022-08-22T21:54:40.922Z,62.60
2022-08-22T21:57:33.817Z,62.85
2022-08-22T22:00:03.736Z,62.80
2022-08-22T22:02:43.862Z,62.56
2022-08-22T22:05:15.963Z,62.67
2022-08-22T22:07:48.674Z,62.98
2022-08-22T22:10:20.724Z,62.80
2022-08-22T22:12:54.291Z,63.04
2022-08-22T22:15:26.396Z,62.83
2022-08-22T22:17:56.568Z,63.00
2022-08-22T22:20:27.695Z,63.05
2022-08-22T22:22:57.388Z,63.20
2022-08-22T22:25:40.075Z,63.33
2022-08-22T22:28:16.544Z,63.43
2022-08-22T22:30:50.468Z,63.07
2022-08-22T22:33:20.224Z,63.32
2022-08-22T22:35:50.620Z,63.22
2022-08-22T22:38:23.913Z,63.26
2022-08-22T22:40:53.615Z,63.60
2022-08-22T22:43:24.492Z,63.54
2022-08-22T22:45:53.656Z,63.59
2022-08-22T22:48:24.277Z,63.32
2022-08-22T22:50:54.559Z,63.40
2022-08-22T22:53:38.236Z,63.44
2022-08-22T22:56:11.823Z,63.44
2022-08-22T22:58:43.077Z,63.36
2022-08-22T23:01:14.125Z,63.48
2022-08-22T23:03:44.268Z,63.54
2022-08-22T23:06:14.287Z,63.44
2022-08-22T23:08:43.417Z,63.43
2022-08-22T23:11:14.346Z,63.37
2022-08-22T23:13:45.026Z,63.39
2022-08-22T23:16:18.492Z,63.45
2022-08-22T23:18:47.591Z,63.39
2022-08-22T23:21:24.227Z,63.64
2022-08-22T23:23:55.302Z,63.43
2022-08-22T23:26:24.687Z,63.26
2022-08-22T23:28:55.319Z,63.34
2022-08-22T23:31:30.904Z,63.57
2022-08-22T23:34:04.916Z,63.24
2022-08-22T23:36:34.757Z,63.34
2022-08-22T23:39:05.803Z,63.34
2022-08-22T23:41:35.638Z,63.24
2022-08-22T23:44:08.914Z,63.24
2022-08-22T23:46:43.335Z,63.48
2022-08-22T23:49:13.404Z,63.50
2022-08-22T23:51:43.208Z,63.49
2022-08-22T23:54:12.382Z,63.16
2022-08-22T23:56:43.328Z,63.34
2022-08-22T23:59:16.129Z,63.34
